sensor_id;sensor_type;location;lat;lon;timestamp;temperature;humidity
1830;DHT22;914;48.118;11.600;2023-06-14T00:00:19;18.30;59.50
1830;DHT22;914;48.118;11.600;2023-06-14T00:02:45;18.30;59.20
1830;DHT22;914;48.118;11.600;2023-06-14T00:05:11;18.40;59.20
1830;DHT22;914;48.118;11.600;2023-06-14T00:07:40;18.20;59.20
1830;DHT22;914;48.118;11.600;2023-06-14T00:10:12;18.10;59.50
1830;DHT22;914;48.118;11.600;2023-06-14T00:12:38;18.00;59.20
1830;DHT22;914;48.118;11.600;2023-06-14T00:15:05;18.00;59.30
1830;DHT22;914;48.118;11.600;2023-06-14T00:17:31;18.00;59.60
1830;DHT22;914;48.118;11.600;2023-06-14T00:19:57;17.90;59.50
1830;DHT22;914;48.118;11.600;2023-06-14T00:22:24;17.90;59.80
1830;DHT22;914;48.118;11.600;2023-06-14T00:24:54;17.90;60.20
1830;DHT22;914;48.118;11.600;2023-06-14T00:27:19;17.90;61.30
1830;DHT22;914;48.118;11.600;2023-06-14T00:29:45;17.90;60.30
1830;DHT22;914;48.118;11.600;2023-06-14T00:32:11;17.80;61.50
1830;DHT22;914;48.118;11.600;2023-06-14T00:34:36;17.70;61.10
1830;DHT22;914;48.118;11.600;2023-06-14T00:37:02;17.60;62.20
1830;DHT22;914;48.118;11.600;2023-06-14T00:39:28;17.60;62.50
1830;DHT22;914;48.118;11.600;2023-06-14T00:41:53;17.50;62.90
1830;DHT22;914;48.118;11.600;2023-06-14T00:44:19;17.50;62.30
1830;DHT22;914;48.118;11.600;2023-06-14T00:46:45;17.50;62.00
1830;DHT22;914;48.118;11.600;2023-06-14T00:49:13;17.50;61.70
1830;DHT22;914;48.118;11.600;2023-06-14T00:51:41;17.40;61.80
1830;DHT22;914;48.118;11.600;2023-06-14T00:54:07;17.30;63.90
1830;DHT22;914;48.118;11.600;2023-06-14T00:56:33;17.10;65.60
1830;DHT22;914;48.118;11.600;2023-06-14T00:58:58;16.70;66.70
1830;DHT22;914;48.118;11.600;2023-06-14T01:01:25;16.60;67.50
1830;DHT22;914;48.118;11.600;2023-06-14T01:03:50;16.60;67.90
1830;DHT22;914;48.118;11.600;2023-06-14T01:09:06;16.50;67.90
1830;DHT22;914;48.118;11.600;2023-06-14T01:11:47;16.50;67.70
1830;DHT22;914;48.118;11.600;2023-06-14T01:14:16;16.60;67.70
1830;DHT22;914;48.118;11.600;2023-06-14T01:16:43;16.60;66.90
1830;DHT22;914;48.118;11.600;2023-06-14T01:19:11;16.70;66.20
1830;DHT22;914;48.118;11.600;2023-06-14T01:21:39;16.80;65.60
1830;DHT22;914;48.118;11.600;2023-06-14T01:24:10;16.70;66.80
1830;DHT22;914;48.118;11.600;2023-06-14T01:26:36;16.60;67.60
1830;DHT22;914;48.118;11.600;2023-06-14T01:29:03;16.60;67.00
1830;DHT22;914;48.118;11.600;2023-06-14T01:31:29;16.60;66.80
1830;DHT22;914;48.118;11.600;2023-06-14T01:34:05;16.70;66.60
1830;DHT22;914;48.118;11.600;2023-06-14T01:36:31;16.70;65.50
1830;DHT22;914;48.118;11.600;2023-06-14T01:38:58;16.70;65.10
1830;DHT22;914;48.118;11.600;2023-06-14T01:41:25;16.70;66.80
1830;DHT22;914;48.118;11.600;2023-06-14T01:43:52;16.60;67.60
1830;DHT22;914;48.118;11.600;2023-06-14T01:46:19;16.50;68.00
1830;DHT22;914;48.118;11.600;2023-06-14T01:48:45;16.50;67.80
1830;DHT22;914;48.118;11.600;2023-06-14T01:51:10;16.50;66.50
1830;DHT22;914;48.118;11.600;2023-06-14T01:53:36;16.60;66.20
1830;DHT22;914;48.118;11.600;2023-06-14T01:56:02;16.60;66.50
1830;DHT22;914;48.118;11.600;2023-06-14T01:58:27;16.50;66.20
1830;DHT22;914;48.118;11.600;2023-06-14T02:00:53;16.50;65.20
1830;DHT22;914;48.118;11.600;2023-06-14T02:03:21;16.50;66.50
1830;DHT22;914;48.118;11.600;2023-06-14T02:05:46;16.50;67.40
1830;DHT22;914;48.118;11.600;2023-06-14T02:08:12;16.40;68.50
1830;DHT22;914;48.118;11.600;2023-06-14T02:10:38;16.40;67.90
1830;DHT22;914;48.118;11.600;2023-06-14T02:13:03;16.40;66.60
1830;DHT22;914;48.118;11.600;2023-06-14T02:15:29;16.40;65.90
1830;DHT22;914;48.118;11.600;2023-06-14T02:17:59;16.30;67.50
1830;DHT22;914;48.118;11.600;2023-06-14T02:20:25;16.20;68.70
1830;DHT22;914;48.118;11.600;2023-06-14T02:22:51;16.10;69.30
1830;DHT22;914;48.118;11.600;2023-06-14T02:25:17;16.00;69.60
1830;DHT22;914;48.118;11.600;2023-06-14T02:27:42;16.00;69.60
1830;DHT22;914;48.118;11.600;2023-06-14T02:30:08;16.00;69.50
1830;DHT22;914;48.118;11.600;2023-06-14T02:32:34;16.00;69.10
1830;DHT22;914;48.118;11.600;2023-06-14T02:35:01;16.10;69.10
1830;DHT22;914;48.118;11.600;2023-06-14T02:37:27;16.10;69.30
1830;DHT22;914;48.118;11.600;2023-06-14T02:39:53;16.10;68.80
1830;DHT22;914;48.118;11.600;2023-06-14T02:42:20;16.00;69.20
1830;DHT22;914;48.118;11.600;2023-06-14T02:44:45;15.80;69.50
1830;DHT22;914;48.118;11.600;2023-06-14T02:47:19;15.50;70.70
1830;DHT22;914;48.118;11.600;2023-06-14T02:49:45;15.30;71.40
1830;DHT22;914;48.118;11.600;2023-06-14T02:52:13;15.30;71.40
1830;DHT22;914;48.118;11.600;2023-06-14T02:54:39;15.20;71.70
1830;DHT22;914;48.118;11.600;2023-06-14T02:57:05;15.10;72.50
1830;DHT22;914;48.118;11.600;2023-06-14T02:59:34;15.20;71.20
1830;DHT22;914;48.118;11.600;2023-06-14T03:02:00;15.30;70.90
1830;DHT22;914;48.118;11.600;2023-06-14T03:04:26;15.40;70.10
1830;DHT22;914;48.118;11.600;2023-06-14T03:06:52;15.50;69.30
1830;DHT22;914;48.118;11.600;2023-06-14T03:09:19;15.50;68.60
1830;DHT22;914;48.118;11.600;2023-06-14T03:11:45;15.60;68.70
1830;DHT22;914;48.118;11.600;2023-06-14T03:14:11;15.50;68.00
1830;DHT22;914;48.118;11.600;2023-06-14T03:16:38;15.60;67.90
1830;DHT22;914;48.118;11.600;2023-06-14T03:19:04;15.60;68.20
1830;DHT22;914;48.118;11.600;2023-06-14T03:21:30;15.60;68.30
1830;DHT22;914;48.118;11.600;2023-06-14T03:23:55;15.60;68.10
1830;DHT22;914;48.118;11.600;2023-06-14T03:26:21;15.60;68.00
1830;DHT22;914;48.118;11.600;2023-06-14T03:28:47;15.70;68.90
1830;DHT22;914;48.118;11.600;2023-06-14T03:31:16;15.60;68.10
1830;DHT22;914;48.118;11.600;2023-06-14T03:33:42;15.50;70.70
1830;DHT22;914;48.118;11.600;2023-06-14T03:36:08;15.40;69.20
1830;DHT22;914;48.118;11.600;2023-06-14T03:38:34;15.40;70.50
1830;DHT22;914;48.118;11.600;2023-06-14T03:41:00;15.50;70.40
1830;DHT22;914;48.118;11.600;2023-06-14T03:43:25;15.50;69.20
1830;DHT22;914;48.118;11.600;2023-06-14T03:45:51;15.40;69.40
1830;DHT22;914;48.118;11.600;2023-06-14T03:48:17;15.50;69.30
1830;DHT22;914;48.118;11.600;2023-06-14T03:50:42;15.50;69.30
1830;DHT22;914;48.118;11.600;2023-06-14T03:53:08;15.50;69.40
1830;DHT22;914;48.118;11.600;2023-06-14T03:55:34;15.70;69.80
1830;DHT22;914;48.118;11.600;2023-06-14T03:58:00;15.70;68.70
1830;DHT22;914;48.118;11.600;2023-06-14T04:00:26;15.60;69.50
1830;DHT22;914;48.118;11.600;2023-06-14T04:02:52;15.60;68.10
1830;DHT22;914;48.118;11.600;2023-06-14T04:05:18;15.50;67.80
1830;DHT22;914;48.118;11.600;2023-06-14T04:07:48;15.50;68.00
1830;DHT22;914;48.118;11.600;2023-06-14T04:10:15;15.50;68.50
1830;DHT22;914;48.118;11.600;2023-06-14T04:12:41;15.50;68.50
1830;DHT22;914;48.118;11.600;2023-06-14T04:15:08;15.40;67.80
1830;DHT22;914;48.118;11.600;2023-06-14T04:17:34;15.40;67.90
1830;DHT22;914;48.118;11.600;2023-06-14T04:20:01;15.40;68.60
1830;DHT22;914;48.118;11.600;2023-06-14T04:22:29;15.40;70.20
1830;DHT22;914;48.118;11.600;2023-06-14T04:24:56;15.40;68.90
1830;DHT22;914;48.118;11.600;2023-06-14T04:27:22;15.40;68.60
1830;DHT22;914;48.118;11.600;2023-06-14T04:29:54;15.50;68.80
1830;DHT22;914;48.118;11.600;2023-06-14T04:32:25;15.50;70.30
1830;DHT22;914;48.118;11.600;2023-06-14T04:34:55;15.50;68.90
1830;DHT22;914;48.118;11.600;2023-06-14T04:37:22;15.60;69.20
1830;DHT22;914;48.118;11.600;2023-06-14T04:39:51;15.60;68.60
1830;DHT22;914;48.118;11.600;2023-06-14T04:42:17;15.60;69.40
1830;DHT22;914;48.118;11.600;2023-06-14T04:44:46;15.70;69.00
1830;DHT22;914;48.118;11.600;2023-06-14T04:47:12;15.70;68.20
1830;DHT22;914;48.118;11.600;2023-06-14T04:49:39;15.80;68.40
1830;DHT22;914;48.118;11.600;2023-06-14T04:52:06;16.00;68.40
1830;DHT22;914;48.118;11.600;2023-06-14T04:54:33;16.10;68.10
1830;DHT22;914;48.118;11.600;2023-06-14T04:56:59;16.10;68.10
1830;DHT22;914;48.118;11.600;2023-06-14T04:59:25;16.20;67.70
1830;DHT22;914;48.118;11.600;2023-06-14T05:01:51;16.30;67.60
1830;DHT22;914;48.118;11.600;2023-06-14T05:04:19;16.40;68.10
1830;DHT22;914;48.118;11.600;2023-06-14T05:06:45;16.50;66.60
1830;DHT22;914;48.118;11.600;2023-06-14T05:09:13;16.50;68.30
1830;DHT22;914;48.118;11.600;2023-06-14T05:11:40;16.50;67.30
1830;DHT22;914;48.118;11.600;2023-06-14T05:14:11;16.50;69.80
1830;DHT22;914;48.118;11.600;2023-06-14T05:16:37;16.50;68.20
1830;DHT22;914;48.118;11.600;2023-06-14T05:19:04;16.50;69.00
1830;DHT22;914;48.118;11.600;2023-06-14T05:21:30;16.60;67.50
1830;DHT22;914;48.118;11.600;2023-06-14T05:23:57;16.80;69.00
1830;DHT22;914;48.118;11.600;2023-06-14T05:26:23;16.90;68.60
1830;DHT22;914;48.118;11.600;2023-06-14T05:28:57;17.00;68.10
1830;DHT22;914;48.118;11.600;2023-06-14T05:31:26;17.10;69.40
1830;DHT22;914;48.118;11.600;2023-06-14T05:33:53;17.30;69.70
1830;DHT22;914;48.118;11.600;2023-06-14T05:36:21;17.50;67.60
1830;DHT22;914;48.118;11.600;2023-06-14T05:38:47;17.60;68.60
1830;DHT22;914;48.118;11.600;2023-06-14T05:41:13;17.50;69.30
1830;DHT22;914;48.118;11.600;2023-06-14T05:43:39;17.50;70.80
1830;DHT22;914;48.118;11.600;2023-06-14T05:46:05;17.50;69.50
1830;DHT22;914;48.118;11.600;2023-06-14T05:48:31;17.30;69.10
1830;DHT22;914;48.118;11.600;2023-06-14T05:50:56;17.40;68.20
1830;DHT22;914;48.118;11.600;2023-06-14T05:53:22;17.60;68.40
1830;DHT22;914;48.118;11.600;2023-06-14T05:55:48;17.70;66.40
1830;DHT22;914;48.118;11.600;2023-06-14T05:58:14;17.80;68.10
1830;DHT22;914;48.118;11.600;2023-06-14T06:00:39;18.00;67.00
1830;DHT22;914;48.118;11.600;2023-06-14T06:03:05;17.60;68.40
1830;DHT22;914;48.118;11.600;2023-06-14T06:05:33;17.80;68.10
1830;DHT22;914;48.118;11.600;2023-06-14T06:07:59;18.00;67.30
1830;DHT22;914;48.118;11.600;2023-06-14T06:10:25;17.90;67.00
1830;DHT22;914;48.118;11.600;2023-06-14T06:12:51;17.90;67.80
1830;DHT22;914;48.118;11.600;2023-06-14T06:15:17;17.90;67.40
1830;DHT22;914;48.118;11.600;2023-06-14T06:17:44;18.20;67.60
1830;DHT22;914;48.118;11.600;2023-06-14T06:20:10;18.50;67.80
1830;DHT22;914;48.118;11.600;2023-06-14T06:22:37;18.30;66.80
1830;DHT22;914;48.118;11.600;2023-06-14T06:25:03;18.30;67.60
1830;DHT22;914;48.118;11.600;2023-06-14T06:27:28;18.40;67.40
1830;DHT22;914;48.118;11.600;2023-06-14T06:29:54;18.40;66.40
1830;DHT22;914;48.118;11.600;2023-06-14T06:32:20;18.30;67.40
1830;DHT22;914;48.118;11.600;2023-06-14T06:34:45;18.80;67.80
1830;DHT22;914;48.118;11.600;2023-06-14T06:37:11;18.50;67.50
1830;DHT22;914;48.118;11.600;2023-06-14T06:39:37;18.20;67.40
1830;DHT22;914;48.118;11.600;2023-06-14T06:42:03;18.80;68.20
1830;DHT22;914;48.118;11.600;2023-06-14T06:44:28;18.90;67.10
1830;DHT22;914;48.118;11.600;2023-06-14T06:46:54;19.00;66.20
1830;DHT22;914;48.118;11.600;2023-06-14T06:49:20;19.30;67.10
1830;DHT22;914;48.118;11.600;2023-06-14T06:52:03;19.30;65.80
1830;DHT22;914;48.118;11.600;2023-06-14T06:54:29;19.30;66.40
1830;DHT22;914;48.118;11.600;2023-06-14T06:56:55;19.60;66.50
1830;DHT22;914;48.118;11.600;2023-06-14T06:59:21;19.30;66.10
1830;DHT22;914;48.118;11.600;2023-06-14T07:01:46;19.30;66.30
1830;DHT22;914;48.118;11.600;2023-06-14T07:04:13;18.50;67.50
1830;DHT22;914;48.118;11.600;2023-06-14T07:06:38;18.30;68.10
1830;DHT22;914;48.118;11.600;2023-06-14T07:09:04;18.40;69.10
1830;DHT22;914;48.118;11.600;2023-06-14T07:11:33;19.00;68.90
1830;DHT22;914;48.118;11.600;2023-06-14T07:13:59;19.40;66.20
1830;DHT22;914;48.118;11.600;2023-06-14T07:16:24;19.60;66.10
1830;DHT22;914;48.118;11.600;2023-06-14T07:18:51;19.70;66.20
1830;DHT22;914;48.118;11.600;2023-06-14T07:21:16;19.70;65.00
1830;DHT22;914;48.118;11.600;2023-06-14T07:23:42;19.90;64.60
1830;DHT22;914;48.118;11.600;2023-06-14T07:26:08;20.30;65.30
1830;DHT22;914;48.118;11.600;2023-06-14T07:28:33;20.40;65.00
1830;DHT22;914;48.118;11.600;2023-06-14T07:30:59;20.70;63.40
1830;DHT22;914;48.118;11.600;2023-06-14T07:33:25;20.40;63.30
1830;DHT22;914;48.118;11.600;2023-06-14T07:35:50;20.50;63.90
1830;DHT22;914;48.118;11.600;2023-06-14T07:38:17;20.90;63.50
1830;DHT22;914;48.118;11.600;2023-06-14T07:40:43;20.50;62.10
1830;DHT22;914;48.118;11.600;2023-06-14T07:43:09;20.60;62.20
1830;DHT22;914;48.118;11.600;2023-06-14T07:45:34;21.00;62.70
1830;DHT22;914;48.118;11.600;2023-06-14T07:48:00;21.30;62.10
1830;DHT22;914;48.118;11.600;2023-06-14T07:50:25;21.50;61.60
1830;DHT22;914;48.118;11.600;2023-06-14T07:52:51;21.70;60.40
1830;DHT22;914;48.118;11.600;2023-06-14T07:55:17;22.10;59.50
1830;DHT22;914;48.118;11.600;2023-06-14T07:57:43;21.80;58.80
1830;DHT22;914;48.118;11.600;2023-06-14T08:00:10;21.70;58.50
1830;DHT22;914;48.118;11.600;2023-06-14T08:02:44;21.90;58.70
1830;DHT22;914;48.118;11.600;2023-06-14T08:05:10;22.00;57.90
1830;DHT22;914;48.118;11.600;2023-06-14T08:07:39;21.90;57.90
1830;DHT22;914;48.118;11.600;2023-06-14T08:10:06;22.10;57.80
1830;DHT22;914;48.118;11.600;2023-06-14T08:12:32;22.00;57.70
1830;DHT22;914;48.118;11.600;2023-06-14T08:14:59;22.10;57.70
1830;DHT22;914;48.118;11.600;2023-06-14T08:17:25;22.10;57.20
1830;DHT22;914;48.118;11.600;2023-06-14T08:19:50;22.00;57.40
1830;DHT22;914;48.118;11.600;2023-06-14T08:22:17;22.50;56.70
1830;DHT22;914;48.118;11.600;2023-06-14T08:24:43;22.40;56.30
1830;DHT22;914;48.118;11.600;2023-06-14T08:27:10;22.70;56.10
1830;DHT22;914;48.118;11.600;2023-06-14T08:29:35;23.00;56.10
1830;DHT22;914;48.118;11.600;2023-06-14T08:32:01;23.00;56.00
1830;DHT22;914;48.118;11.600;2023-06-14T08:34:27;22.80;53.80
1830;DHT22;914;48.118;11.600;2023-06-14T08:36:53;23.00;54.40
1830;DHT22;914;48.118;11.600;2023-06-14T08:39:19;23.00;54.40
1830;DHT22;914;48.118;11.600;2023-06-14T08:41:46;23.20;54.40
1830;DHT22;914;48.118;11.600;2023-06-14T08:44:16;23.20;53.90
1830;DHT22;914;48.118;11.600;2023-06-14T08:46:42;23.20;53.10
1830;DHT22;914;48.118;11.600;2023-06-14T08:49:11;23.20;53.60
1830;DHT22;914;48.118;11.600;2023-06-14T08:51:38;23.10;52.70
1830;DHT22;914;48.118;11.600;2023-06-14T08:54:06;23.30;52.30
1830;DHT22;914;48.118;11.600;2023-06-14T08:56:32;23.20;51.70
1830;DHT22;914;48.118;11.600;2023-06-14T08:59:00;23.50;53.00
1830;DHT22;914;48.118;11.600;2023-06-14T09:01:36;23.80;52.80
1830;DHT22;914;48.118;11.600;2023-06-14T09:04:03;24.00;52.40
1830;DHT22;914;48.118;11.600;2023-06-14T09:06:31;23.30;51.50
1830;DHT22;914;48.118;11.600;2023-06-14T09:08:57;23.50;51.60
1830;DHT22;914;48.118;11.600;2023-06-14T09:11:23;23.40;52.40
1830;DHT22;914;48.118;11.600;2023-06-14T09:13:49;23.50;52.40
1830;DHT22;914;48.118;11.600;2023-06-14T09:16:16;24.00;51.70
1830;DHT22;914;48.118;11.600;2023-06-14T09:21:13;24.00;51.90
1830;DHT22;914;48.118;11.600;2023-06-14T09:23:44;23.90;52.00
1830;DHT22;914;48.118;11.600;2023-06-14T09:26:15;23.60;52.30
1830;DHT22;914;48.118;11.600;2023-06-14T09:28:42;24.00;52.20
1830;DHT22;914;48.118;11.600;2023-06-14T09:31:13;23.90;53.10
1830;DHT22;914;48.118;11.600;2023-06-14T09:33:41;23.80;52.70
1830;DHT22;914;48.118;11.600;2023-06-14T09:36:14;22.60;54.20
1830;DHT22;914;48.118;11.600;2023-06-14T09:38:42;22.00;54.40
1830;DHT22;914;48.118;11.600;2023-06-14T09:41:16;22.20;55.60
1830;DHT22;914;48.118;11.600;2023-06-14T09:43:42;22.80;56.00
1830;DHT22;914;48.118;11.600;2023-06-14T09:46:09;23.40;53.80
1830;DHT22;914;48.118;11.600;2023-06-14T09:48:35;24.10;54.00
1830;DHT22;914;48.118;11.600;2023-06-14T09:51:01;24.00;52.90
1830;DHT22;914;48.118;11.600;2023-06-14T09:53:30;23.60;53.00
1830;DHT22;914;48.118;11.600;2023-06-14T09:55:57;23.20;53.40
1830;DHT22;914;48.118;11.600;2023-06-14T09:58:26;23.40;53.00
1830;DHT22;914;48.118;11.600;2023-06-14T10:00:54;23.70;53.80
1830;DHT22;914;48.118;11.600;2023-06-14T10:03:28;23.10;52.20
1830;DHT22;914;48.118;11.600;2023-06-14T10:05:55;23.10;53.30
1830;DHT22;914;48.118;11.600;2023-06-14T10:08:27;23.10;52.80
1830;DHT22;914;48.118;11.600;2023-06-14T10:10:55;23.40;52.80
1830;DHT22;914;48.118;11.600;2023-06-14T10:13:22;22.60;53.10
1830;DHT22;914;48.118;11.600;2023-06-14T10:15:59;23.10;54.30
1830;DHT22;914;48.118;11.600;2023-06-14T10:21:40;24.50;52.00
1830;DHT22;914;48.118;11.600;2023-06-14T10:24:09;24.90;51.30
1830;DHT22;914;48.118;11.600;2023-06-14T10:26:50;24.90;51.00
1830;DHT22;914;48.118;11.600;2023-06-14T10:29:16;25.30;52.10
1830;DHT22;914;48.118;11.600;2023-06-14T10:34:09;25.40;50.70
1830;DHT22;914;48.118;11.600;2023-06-14T10:36:35;25.30;51.20
1830;DHT22;914;48.118;11.600;2023-06-14T10:39:07;25.30;50.70
1830;DHT22;914;48.118;11.600;2023-06-14T10:41:40;25.20;49.70
1830;DHT22;914;48.118;11.600;2023-06-14T10:46:55;24.60;52.20
1830;DHT22;914;48.118;11.600;2023-06-14T10:49:37;24.20;52.90
1830;DHT22;914;48.118;11.600;2023-06-14T10:52:14;23.30;54.30
1830;DHT22;914;48.118;11.600;2023-06-14T10:57:22;22.90;56.60
1830;DHT22;914;48.118;11.600;2023-06-14T10:59:47;22.50;56.20
1830;DHT22;914;48.118;11.600;2023-06-14T11:02:42;23.20;57.00
1830;DHT22;914;48.118;11.600;2023-06-14T11:05:14;23.90;54.90
1830;DHT22;914;48.118;11.600;2023-06-14T11:10:41;23.50;54.30
1830;DHT22;914;48.118;11.600;2023-06-14T11:13:08;23.90;54.40
1830;DHT22;914;48.118;11.600;2023-06-14T11:15:35;23.80;53.70
1830;DHT22;914;48.118;11.600;2023-06-14T11:18:05;23.40;54.40
1830;DHT22;914;48.118;11.600;2023-06-14T11:20:33;22.90;55.10
1830;DHT22;914;48.118;11.600;2023-06-14T11:22:59;23.40;54.90
1830;DHT22;914;48.118;11.600;2023-06-14T11:25:26;23.00;54.70
1830;DHT22;914;48.118;11.600;2023-06-14T11:27:58;23.10;55.20
1830;DHT22;914;48.118;11.600;2023-06-14T11:30:26;23.20;53.80
1830;DHT22;914;48.118;11.600;2023-06-14T11:32:55;23.10;54.10
1830;DHT22;914;48.118;11.600;2023-06-14T11:35:22;23.40;53.40
1830;DHT22;914;48.118;11.600;2023-06-14T11:37:55;23.90;53.40
1830;DHT22;914;48.118;11.600;2023-06-14T11:40:24;23.80;53.70
1830;DHT22;914;48.118;11.600;2023-06-14T11:42:58;24.50;52.70
1830;DHT22;914;48.118;11.600;2023-06-14T11:45:25;23.80;52.10
1830;DHT22;914;48.118;11.600;2023-06-14T11:47:50;24.10;52.00
1830;DHT22;914;48.118;11.600;2023-06-14T11:50:16;23.70;51.80
1830;DHT22;914;48.118;11.600;2023-06-14T11:52:43;24.10;52.50
1830;DHT22;914;48.118;11.600;2023-06-14T11:55:08;24.60;52.40
1830;DHT22;914;48.118;11.600;2023-06-14T11:57:34;25.40;52.10
1830;DHT22;914;48.118;11.600;2023-06-14T12:00:03;25.20;49.50
1830;DHT22;914;48.118;11.600;2023-06-14T12:02:33;24.40;50.50
1830;DHT22;914;48.118;11.600;2023-06-14T12:05:04;24.40;51.70
1830;DHT22;914;48.118;11.600;2023-06-14T12:07:32;24.80;52.40
1830;DHT22;914;48.118;11.600;2023-06-14T12:12:24;25.90;52.30
1830;DHT22;914;48.118;11.600;2023-06-14T12:14:51;26.30;49.60
1830;DHT22;914;48.118;11.600;2023-06-14T12:17:18;25.70;50.50
1830;DHT22;914;48.118;11.600;2023-06-14T12:19:45;25.30;50.80
1830;DHT22;914;48.118;11.600;2023-06-14T12:22:12;25.90;53.00
1830;DHT22;914;48.118;11.600;2023-06-14T12:24:38;25.90;50.00
1830;DHT22;914;48.118;11.600;2023-06-14T12:27:05;24.90;50.90
1830;DHT22;914;48.118;11.600;2023-06-14T12:29:31;25.50;51.70
1830;DHT22;914;48.118;11.600;2023-06-14T12:31:57;26.10;51.40
1830;DHT22;914;48.118;11.600;2023-06-14T12:34:27;26.50;51.10
1830;DHT22;914;48.118;11.600;2023-06-14T12:36:56;26.80;50.50
1830;DHT22;914;48.118;11.600;2023-06-14T12:39:22;25.70;48.80
1830;DHT22;914;48.118;11.600;2023-06-14T12:41:48;25.40;49.80
1830;DHT22;914;48.118;11.600;2023-06-14T12:44:15;26.30;49.50
1830;DHT22;914;48.118;11.600;2023-06-14T12:46:42;28.50;47.80
1830;DHT22;914;48.118;11.600;2023-06-14T12:49:11;28.80;45.90
1830;DHT22;914;48.118;11.600;2023-06-14T12:51:38;29.30;46.70
1830;DHT22;914;48.118;11.600;2023-06-14T12:54:04;30.10;46.00
1830;DHT22;914;48.118;11.600;2023-06-14T12:56:30;30.30;45.80
1830;DHT22;914;48.118;11.600;2023-06-14T12:58:56;31.50;45.20
1830;DHT22;914;48.118;11.600;2023-06-14T13:01:22;31.60;44.50
1830;DHT22;914;48.118;11.600;2023-06-14T13:03:48;31.70;43.50
1830;DHT22;914;48.118;11.600;2023-06-14T13:06:15;29.70;44.60
1830;DHT22;914;48.118;11.600;2023-06-14T13:08:41;27.50;46.40
1830;DHT22;914;48.118;11.600;2023-06-14T13:11:06;26.50;47.50
1830;DHT22;914;48.118;11.600;2023-06-14T13:13:32;24.80;48.60
1830;DHT22;914;48.118;11.600;2023-06-14T13:15:58;24.90;49.20
1830;DHT22;914;48.118;11.600;2023-06-14T13:18:24;25.60;48.30
1830;DHT22;914;48.118;11.600;2023-06-14T13:20:49;26.20;48.50
1830;DHT22;914;48.118;11.600;2023-06-14T13:23:15;28.20;46.90
1830;DHT22;914;48.118;11.600;2023-06-14T13:25:41;29.60;45.70
1830;DHT22;914;48.118;11.600;2023-06-14T13:28:07;30.90;43.30
1830;DHT22;914;48.118;11.600;2023-06-14T13:30:33;30.00;44.80
1830;DHT22;914;48.118;11.600;2023-06-14T13:32:59;29.00;44.20
1830;DHT22;914;48.118;11.600;2023-06-14T13:35:25;29.80;45.70
1830;DHT22;914;48.118;11.600;2023-06-14T13:37:52;30.00;43.20
1830;DHT22;914;48.118;11.600;2023-06-14T13:40:17;26.30;45.80
1830;DHT22;914;48.118;11.600;2023-06-14T13:42:43;25.20;47.90
1830;DHT22;914;48.118;11.600;2023-06-14T13:45:10;25.20;48.90
1830;DHT22;914;48.118;11.600;2023-06-14T13:47:36;25.50;47.90
1830;DHT22;914;48.118;11.600;2023-06-14T13:50:03;25.80;47.80
1830;DHT22;914;48.118;11.600;2023-06-14T13:52:28;26.70;47.20
1830;DHT22;914;48.118;11.600;2023-06-14T13:54:54;26.50;46.10
1830;DHT22;914;48.118;11.600;2023-06-14T13:57:20;27.40;45.50
1830;DHT22;914;48.118;11.600;2023-06-14T13:59:45;27.10;46.00
1830;DHT22;914;48.118;11.600;2023-06-14T14:02:11;26.90;47.10
1830;DHT22;914;48.118;11.600;2023-06-14T14:04:38;26.50;46.20
1830;DHT22;914;48.118;11.600;2023-06-14T14:07:05;26.40;45.50
1830;DHT22;914;48.118;11.600;2023-06-14T14:09:35;26.10;46.00
1830;DHT22;914;48.118;11.600;2023-06-14T14:12:01;26.20;46.00
1830;DHT22;914;48.118;11.600;2023-06-14T14:14:28;26.60;46.40
1830;DHT22;914;48.118;11.600;2023-06-14T14:16:53;27.10;47.40
1830;DHT22;914;48.118;11.600;2023-06-14T14:19:20;27.80;45.80
1830;DHT22;914;48.118;11.600;2023-06-14T14:21:46;28.00;46.90
1830;DHT22;914;48.118;11.600;2023-06-14T14:24:12;28.40;45.10
1830;DHT22;914;48.118;11.600;2023-06-14T14:26:38;27.90;43.20
1830;DHT22;914;48.118;11.600;2023-06-14T14:29:04;27.30;45.20
1830;DHT22;914;48.118;11.600;2023-06-14T14:31:30;27.10;45.00
1830;DHT22;914;48.118;11.600;2023-06-14T14:33:56;26.70;45.20
1830;DHT22;914;48.118;11.600;2023-06-14T14:36:22;25.10;46.80
1830;DHT22;914;48.118;11.600;2023-06-14T14:38:47;24.80;48.70
1830;DHT22;914;48.118;11.600;2023-06-14T14:41:13;25.70;48.00
1830;DHT22;914;48.118;11.600;2023-06-14T14:43:39;26.10;47.50
1830;DHT22;914;48.118;11.600;2023-06-14T14:46:04;26.50;46.20
1830;DHT22;914;48.118;11.600;2023-06-14T14:48:30;26.50;46.70
1830;DHT22;914;48.118;11.600;2023-06-14T14:50:56;26.40;45.50
1830;DHT22;914;48.118;11.600;2023-06-14T14:53:22;26.40;45.90
1830;DHT22;914;48.118;11.600;2023-06-14T14:55:48;25.90;46.20
1830;DHT22;914;48.118;11.600;2023-06-14T14:58:13;25.80;47.30
1830;DHT22;914;48.118;11.600;2023-06-14T15:00:44;26.30;47.90
1830;DHT22;914;48.118;11.600;2023-06-14T15:03:09;26.20;47.40
1830;DHT22;914;48.118;11.600;2023-06-14T15:05:35;25.40;48.20
1830;DHT22;914;48.118;11.600;2023-06-14T15:08:02;25.70;48.10
1830;DHT22;914;48.118;11.600;2023-06-14T15:10:28;26.00;47.70
1830;DHT22;914;48.118;11.600;2023-06-14T15:12:54;25.10;49.20
1830;DHT22;914;48.118;11.600;2023-06-14T15:15:20;25.30;48.40
1830;DHT22;914;48.118;11.600;2023-06-14T15:17:45;25.80;47.60
1830;DHT22;914;48.118;11.600;2023-06-14T15:20:11;25.40;48.50
1830;DHT22;914;48.118;11.600;2023-06-14T15:22:39;25.20;49.10
1830;DHT22;914;48.118;11.600;2023-06-14T15:25:05;25.20;49.10
1830;DHT22;914;48.118;11.600;2023-06-14T15:27:30;25.60;48.60
1830;DHT22;914;48.118;11.600;2023-06-14T15:29:56;25.20;49.10
1830;DHT22;914;48.118;11.600;2023-06-14T15:32:22;25.40;49.70
1830;DHT22;914;48.118;11.600;2023-06-14T15:34:47;25.70;50.70
1830;DHT22;914;48.118;11.600;2023-06-14T15:37:13;24.50;48.30
1830;DHT22;914;48.118;11.600;2023-06-14T15:39:39;24.60;50.30
1830;DHT22;914;48.118;11.600;2023-06-14T15:42:05;24.70;49.50
1830;DHT22;914;48.118;11.600;2023-06-14T15:44:31;24.20;49.70
1830;DHT22;914;48.118;11.600;2023-06-14T15:46:57;23.60;49.60
1830;DHT22;914;48.118;11.600;2023-06-14T15:49:22;23.70;50.40
1830;DHT22;914;48.118;11.600;2023-06-14T15:51:48;23.70;51.80
1830;DHT22;914;48.118;11.600;2023-06-14T15:54:14;23.70;52.70
1830;DHT22;914;48.118;11.600;2023-06-14T15:56:39;23.40;52.90
1830;DHT22;914;48.118;11.600;2023-06-14T15:59:05;23.10;53.00
1830;DHT22;914;48.118;11.600;2023-06-14T16:01:32;23.20;53.90
1830;DHT22;914;48.118;11.600;2023-06-14T16:03:58;23.40;53.50
1830;DHT22;914;48.118;11.600;2023-06-14T16:06:24;23.80;52.90
1830;DHT22;914;48.118;11.600;2023-06-14T16:08:49;24.10;52.70
1830;DHT22;914;48.118;11.600;2023-06-14T16:11:17;24.40;52.40
1830;DHT22;914;48.118;11.600;2023-06-14T16:13:45;24.20;52.50
1830;DHT22;914;48.118;11.600;2023-06-14T16:16:11;23.90;52.10
1830;DHT22;914;48.118;11.600;2023-06-14T16:18:37;24.00;52.80
1830;DHT22;914;48.118;11.600;2023-06-14T16:21:03;23.70;52.40